Airfield :
LOGIN :

Register | Disclaimer

   EN    FR    IT 

 










Legend :    VFR   Marginal VFR   IFR   Intensive IFR   Very Intensive IFR
Visi :
Ceiling :
>= 8 km
>= 3000ft
5 to 8 km
1000 to 3000 ft
1500m to 5 km
500 to 1000 ft
800 to 1500m
200 to 500 ft
< 800m
< 200 ft
Symbols :   Thunderstorms  Fog  Heavy snow  Heavy precipitations  Wind > 20 kt
SIGMETs :     Misc.  Thunderstorms  Icing  Turbulence  Mountain Waves  Volcanic Ashes






- Airport Elevation : 324 ft
- IATA code : KVB


ESGR - Skovde

CURRENT METAR :
  • 220450Z AUTO 11008KT 9999 OVC009/// 06/05 Q1015

EXPIRED METARs :
  • 220420Z AUTO 11009KT 070V140 9999 -DZ OVC009/// 06/05 Q1016 REDZ
  • 220350Z AUTO 11008KT 9999 OVC009/// 06/05 Q1016 RESHUP REDZ
  • 220320Z AUTO 11008KT 9999 OVC010/// 06/05 Q1016
  • 220250Z AUTO 11007KT 9999 BKN009/// OVC012/// 06/05 Q1016
  • 220220Z AUTO 11006KT 070V150 9999 -DZ OVC009/// 06/05 Q1016 REDZ

TAF N/A



MET'MAP, your aeronautical weather chart ! - Copyright ORBIFLY December 2007 - Disclaimer

ORBIFLY MET'MAP TEAM :

Programming & Development : Alexandra Zaïnal
Concept & Development : Baudouin d'Aumeries
Co-Development & Prog : Marc-Olivier Méhu
Technical & hardware support : Manuel Goepfert

Contact : metmap@orbifly.com




SOURCES & CREDITS :

   NOAA